createdAt,value
2018-05-04T00:01:49.335Z,5.70
2018-05-04T00:04:16.981Z,4.82
2018-05-04T00:06:45.243Z,4.60
2018-05-04T00:09:12.750Z,5.07
2018-05-04T00:11:40.284Z,4.72
2018-05-04T00:14:08.559Z,4.85
2018-05-04T00:16:36.852Z,4.25
2018-05-04T00:19:04.367Z,4.32
2018-05-04T00:21:33.078Z,4.53
2018-05-04T00:24:00.587Z,5.68
2018-05-04T00:26:28.886Z,4.50
2018-05-04T00:28:56.594Z,4.85
2018-05-04T00:31:24.218Z,4.20
2018-05-04T00:33:51.746Z,4.28
2018-05-04T00:36:19.302Z,4.43
2018-05-04T00:38:46.819Z,4.50
2018-05-04T00:41:15.087Z,4.72
2018-05-04T00:43:43.374Z,5.43
2018-05-04T00:46:11.815Z,4.45
2018-05-04T00:48:39.343Z,4.15
2018-05-04T00:51:06.973Z,4.70
2018-05-04T00:53:34.515Z,5.55
2018-05-04T00:56:02.100Z,5.30
2018-05-04T00:58:29.600Z,5.18
2018-05-04T01:00:57.123Z,4.87
2018-05-04T01:03:24.616Z,4.07
2018-05-04T01:05:52.138Z,5.68
2018-05-04T01:08:19.679Z,4.95
2018-05-04T01:10:47.963Z,5.68
2018-05-04T01:13:16.436Z,4.80
2018-05-04T01:15:44.772Z,5.40
2018-05-04T01:18:12.278Z,5.90
2018-05-04T01:20:40.547Z,5.60
2018-05-04T01:23:09.339Z,6.20
2018-05-04T01:25:37.669Z,6.28
2018-05-04T01:28:05.208Z,5.03
2018-05-04T01:30:32.696Z,6.05
2018-05-04T01:33:00.188Z,6.28
2018-05-04T01:35:28.462Z,6.18
2018-05-04T01:37:56.742Z,5.60
2018-05-04T01:40:25.045Z,5.72
2018-05-04T01:42:52.592Z,4.50
2018-05-04T01:45:20.155Z,6.35
2018-05-04T01:47:48.108Z,5.65
2018-05-04T01:50:16.382Z,5.90
2018-05-04T01:52:44.652Z,6.28
2018-05-04T01:55:12.931Z,5.28
2018-05-04T01:57:41.258Z,6.60
2018-05-04T02:00:09.724Z,5.97
2018-05-04T02:02:37.215Z,5.68
2018-05-04T02:05:04.776Z,5.25
2018-05-04T02:07:32.440Z,5.32
2018-05-04T02:10:00.010Z,5.22
2018-05-04T02:12:28.327Z,5.35
2018-05-04T02:14:55.816Z,5.75
2018-05-04T02:17:23.314Z,6.40
2018-05-04T02:19:50.923Z,6.32
2018-05-04T02:22:18.565Z,6.07
2018-05-04T02:24:46.361Z,6.25
2018-05-04T02:27:14.028Z,6.05
2018-05-04T02:29:41.567Z,5.78
2018-05-04T02:32:09.440Z,5.72
2018-05-04T02:34:37.155Z,6.55
2018-05-04T02:37:05.427Z,6.10
2018-05-04T02:39:33.879Z,6.35
2018-05-04T02:42:01.487Z,5.65
2018-05-04T02:44:29.927Z,5.75
2018-05-04T02:46:58.806Z,7.15
2018-05-04T02:49:26.563Z,6.15
2018-05-04T02:51:54.067Z,6.60
2018-05-04T02:54:22.323Z,7.05
2018-05-04T02:56:49.840Z,6.40
2018-05-04T02:59:17.347Z,6.35
2018-05-04T03:01:45.644Z,7.10
2018-05-04T03:04:13.930Z,6.90
2018-05-04T03:06:41.427Z,7.20
2018-05-04T03:09:09.149Z,6.10
2018-05-04T03:11:36.695Z,6.50
2018-05-04T03:14:04.316Z,7.37
2018-05-04T03:16:31.839Z,6.93
2018-05-04T03:18:59.347Z,7.00
2018-05-04T03:21:27.428Z,6.95
2018-05-04T03:23:55.182Z,6.85
2018-05-04T03:26:22.725Z,7.32
2018-05-04T03:28:50.383Z,8.50
2018-05-04T03:31:18.030Z,8.18
2018-05-04T03:33:45.527Z,7.18
2018-05-04T03:36:13.042Z,7.25
2018-05-04T03:38:40.567Z,7.75
2018-05-04T03:41:09.658Z,7.35
2018-05-04T03:43:37.263Z,7.40
2018-05-04T03:46:04.794Z,8.18
2018-05-04T03:48:33.059Z,8.18
2018-05-04T03:51:01.511Z,9.23
2018-05-04T03:53:29.170Z,8.10
2018-05-04T03:55:58.094Z,9.13
2018-05-04T03:58:38.250Z,8.68
2018-05-04T04:01:18.068Z,8.15
2018-05-04T04:03:57.531Z,8.13
2018-05-04T04:06:25.847Z,8.13
2018-05-04T04:08:53.347Z,8.18
2018-05-04T04:11:21.196Z,8.30
2018-05-04T04:13:49.686Z,9.45
2018-05-04T04:16:17.194Z,10.35
2018-05-04T04:18:45.007Z,9.07
2018-05-04T04:21:13.596Z,10.50
2018-05-04T04:23:41.471Z,8.52
2018-05-04T04:26:09.064Z,8.52
2018-05-04T04:28:37.379Z,9.98
2018-05-04T04:31:04.935Z,8.90
2018-05-04T04:33:32.451Z,9.77
2018-05-04T04:36:00.710Z,8.38
2018-05-04T04:38:28.225Z,9.25
2018-05-04T04:40:56.074Z,9.05
2018-05-04T04:43:23.627Z,8.82
2018-05-04T04:45:51.143Z,9.02
2018-05-04T04:48:18.638Z,8.82
2018-05-04T04:50:47.190Z,9.35
2018-05-04T04:53:14.702Z,9.00
2018-05-04T04:55:42.196Z,9.13
2018-05-04T04:58:09.844Z,8.15
2018-05-04T05:00:37.362Z,8.45
2018-05-04T05:03:05.631Z,9.45
2018-05-04T05:05:33.924Z,8.90
2018-05-04T05:08:02.054Z,8.60
2018-05-04T05:10:29.554Z,8.68
2018-05-04T05:12:57.076Z,8.80
2018-05-04T05:15:24.692Z,7.93
2018-05-04T05:17:52.211Z,9.95
2018-05-04T05:20:21.774Z,10.13
2018-05-04T05:22:49.724Z,11.00
2018-05-04T05:25:22.499Z,9.90
2018-05-04T05:27:50.550Z,8.80
2018-05-04T05:30:27.429Z,8.73
2018-05-04T05:33:08.867Z,9.55
2018-05-04T05:35:36.580Z,9.55
2018-05-04T05:38:12.649Z,9.38
2018-05-04T05:40:44.304Z,9.90
2018-05-04T05:43:12.448Z,9.38
2018-05-04T05:45:45.962Z,9.20
2018-05-04T05:48:14.841Z,10.32
2018-05-04T05:50:48.517Z,10.77
2018-05-04T05:53:17.680Z,9.93
2018-05-04T05:55:46.635Z,9.55
2018-05-04T05:58:14.229Z,9.30
2018-05-04T06:00:51.871Z,10.10
2018-05-04T06:03:22.031Z,9.60
2018-05-04T06:05:51.459Z,8.77
2018-05-04T06:08:23.503Z,9.68
2018-05-04T06:10:51.305Z,9.52
2018-05-04T06:13:19.624Z,11.10
2018-05-04T06:15:49.119Z,9.43
2018-05-04T06:18:19.079Z,9.43
2018-05-04T06:20:49.641Z,10.02
2018-05-04T06:23:17.724Z,9.60
2018-05-04T06:25:45.324Z,9.68
2018-05-04T06:28:14.098Z,10.20
2018-05-04T06:30:43.432Z,10.02
2018-05-04T06:33:17.350Z,9.40
2018-05-04T06:35:45.275Z,10.48
2018-05-04T06:38:29.032Z,11.38
2018-05-04T06:41:00.501Z,9.43
2018-05-04T06:43:32.527Z,9.23
2018-05-04T06:46:02.253Z,8.93
2018-05-04T06:48:37.411Z,8.80
2018-05-04T06:51:11.911Z,10.25
2018-05-04T06:53:43.874Z,8.95
2018-05-04T06:56:11.703Z,9.10
2018-05-04T06:58:39.308Z,8.30
2018-05-04T07:01:06.967Z,8.63
2018-05-04T07:03:34.520Z,9.35
2018-05-04T07:06:02.030Z,9.75
2018-05-04T07:08:29.551Z,11.27
2018-05-04T07:10:57.074Z,9.73
2018-05-04T07:13:24.591Z,8.68
2018-05-04T07:15:52.103Z,11.40
2018-05-04T07:18:21.736Z,9.80
2018-05-04T07:20:49.271Z,8.90
2018-05-04T07:23:17.560Z,10.82
2018-05-04T07:25:45.071Z,10.82
2018-05-04T07:28:12.664Z,10.00
2018-05-04T07:30:40.208Z,10.80
2018-05-04T07:33:07.740Z,11.60
2018-05-04T07:35:35.267Z,12.07
2018-05-04T07:38:02.785Z,11.30
2018-05-04T07:40:31.275Z,11.80
2018-05-04T07:42:58.790Z,11.35
2018-05-04T07:45:26.340Z,10.73
2018-05-04T07:47:53.871Z,11.43
2018-05-04T07:50:21.439Z,10.95
2018-05-04T07:52:48.950Z,12.93
2018-05-04T07:55:16.664Z,14.40
2018-05-04T07:57:44.927Z,12.23
2018-05-04T08:00:12.436Z,12.15
2018-05-04T08:02:39.947Z,11.93
2018-05-04T08:05:07.475Z,11.95
2018-05-04T08:07:35.751Z,12.30
2018-05-04T08:10:03.281Z,12.80
2018-05-04T08:12:30.845Z,12.80
2018-05-04T08:14:58.362Z,13.13
2018-05-04T08:20:01.451Z,11.97
2018-05-04T08:22:28.960Z,11.77
2018-05-04T08:24:56.480Z,11.80
2018-05-04T08:27:24.096Z,10.23
2018-05-04T08:29:52.329Z,10.77
2018-05-04T08:32:19.845Z,11.30
2018-05-04T08:34:47.349Z,10.97
2018-05-04T08:37:15.135Z,11.07
2018-05-04T08:39:43.601Z,10.23
2018-05-04T08:42:11.925Z,9.50
2018-05-04T08:44:40.360Z,9.77
2018-05-04T08:47:07.914Z,8.90
2018-05-04T08:49:36.235Z,9.50
2018-05-04T08:52:03.925Z,9.73
2018-05-04T08:54:31.513Z,8.87
2018-05-04T08:56:59.083Z,9.00
2018-05-04T08:59:26.756Z,7.80
2018-05-04T09:01:54.295Z,8.73
2018-05-04T09:04:21.799Z,8.20
2018-05-04T09:06:49.348Z,8.00
2018-05-04T09:09:16.856Z,7.90
2018-05-04T09:11:44.388Z,7.90
2018-05-04T09:14:11.949Z,7.47
2018-05-04T09:16:39.484Z,7.83
2018-05-04T09:19:07.015Z,7.63
2018-05-04T09:21:34.539Z,7.00
2018-05-04T09:24:02.931Z,7.20
2018-05-04T09:26:30.581Z,7.43
2018-05-04T09:28:58.170Z,7.97
2018-05-04T09:31:25.692Z,7.40
2018-05-04T09:33:54.017Z,7.63
2018-05-04T09:36:21.699Z,7.50
2018-05-04T09:38:49.208Z,7.30
2018-05-04T09:41:16.859Z,7.67
2018-05-04T09:43:45.187Z,7.20
2018-05-04T09:46:12.668Z,6.80
2018-05-04T09:48:40.195Z,6.50
2018-05-04T09:51:08.064Z,7.20
2018-05-04T09:53:35.673Z,8.67
2018-05-04T09:56:04.237Z,7.00
2018-05-04T09:58:31.832Z,7.80
2018-05-04T10:00:59.404Z,7.23
2018-05-04T10:03:27.234Z,7.87
2018-05-04T10:05:54.679Z,6.80
2018-05-04T10:08:22.203Z,6.93
2018-05-04T10:10:50.012Z,8.37
2018-05-04T10:13:17.539Z,7.10
2018-05-04T10:15:45.367Z,7.43
2018-05-04T10:18:14.543Z,7.27
2018-05-04T10:20:46.689Z,7.23
2018-05-04T10:23:15.254Z,8.37
2018-05-04T10:25:42.923Z,7.90
2018-05-04T10:28:10.637Z,7.40
2018-05-04T10:30:38.873Z,7.43
2018-05-04T10:33:06.430Z,8.07
2018-05-04T10:35:34.000Z,8.90
2018-05-04T10:38:01.569Z,7.30
2018-05-04T10:40:31.140Z,7.63
2018-05-04T10:42:58.711Z,7.67
2018-05-04T10:45:26.447Z,7.50
2018-05-04T10:47:53.971Z,7.27
2018-05-04T10:50:22.707Z,8.23
2018-05-04T10:52:50.360Z,7.23
2018-05-04T10:55:18.226Z,8.30
2018-05-04T10:57:46.085Z,8.77
2018-05-04T11:00:13.651Z,8.60
2018-05-04T11:02:43.234Z,7.80
2018-05-04T11:05:10.804Z,8.17
2018-05-04T11:07:38.311Z,8.03
2018-05-04T11:10:06.566Z,7.47
2018-05-04T11:12:34.161Z,9.13
2018-05-04T11:15:02.441Z,7.97
2018-05-04T11:17:30.771Z,7.47
2018-05-04T11:19:58.977Z,7.30
2018-05-04T11:22:27.996Z,8.70
2018-05-04T11:24:56.683Z,8.10
2018-05-04T11:27:25.154Z,9.10
2018-05-04T11:29:53.616Z,7.40
2018-05-04T11:32:22.060Z,8.13
2018-05-04T11:34:50.706Z,7.70
2018-05-04T11:37:19.707Z,7.93
2018-05-04T11:39:48.210Z,6.57
2018-05-04T11:42:15.761Z,7.60
2018-05-04T11:44:43.420Z,7.80
2018-05-04T11:47:11.299Z,7.10
2018-05-04T11:49:38.950Z,9.00
2018-05-04T11:52:06.415Z,8.30
2018-05-04T11:54:33.919Z,7.30
2018-05-04T11:57:02.053Z,8.17
2018-05-04T11:59:29.694Z,7.73
2018-05-04T12:01:57.272Z,8.67
2018-05-04T12:04:31.603Z,8.97
2018-05-04T12:06:59.526Z,8.90
2018-05-04T12:09:29.103Z,7.83
2018-05-04T12:11:57.046Z,8.20
2018-05-04T12:14:25.467Z,8.13
2018-05-04T12:16:52.974Z,7.13
2018-05-04T12:19:21.520Z,8.00
2018-05-04T12:21:49.800Z,7.20
2018-05-04T12:24:18.380Z,8.83
2018-05-04T12:26:47.764Z,9.57
2018-05-04T12:29:15.845Z,7.70
2018-05-04T12:31:43.431Z,6.70
2018-05-04T12:34:11.156Z,7.13
2018-05-04T12:36:39.146Z,7.57
2018-05-04T12:39:07.715Z,8.57
2018-05-04T12:41:35.407Z,7.47
2018-05-04T12:44:03.689Z,8.23
2018-05-04T12:46:31.298Z,7.17
2018-05-04T12:48:58.881Z,7.87
2018-05-04T12:51:26.407Z,8.10
2018-05-04T12:53:54.031Z,9.10
2018-05-04T12:56:21.653Z,8.07
2018-05-04T12:58:49.163Z,9.10
2018-05-04T13:01:16.747Z,7.40
2018-05-04T13:03:44.260Z,9.20
2018-05-04T13:06:11.783Z,8.57
2018-05-04T13:08:39.425Z,6.80
2018-05-04T13:11:08.256Z,6.27
2018-05-04T13:13:36.666Z,5.80
2018-05-04T13:16:04.515Z,7.40
2018-05-04T13:18:33.017Z,7.53
2018-05-04T13:21:00.796Z,8.90
2018-05-04T13:23:28.600Z,7.27
2018-05-04T13:25:56.174Z,8.30
2018-05-04T13:28:25.276Z,7.60
2018-05-04T13:30:54.387Z,7.40
2018-05-04T13:33:22.117Z,7.80
2018-05-04T13:35:50.099Z,7.67
2018-05-04T13:38:17.672Z,7.60
2018-05-04T13:40:45.319Z,8.10
2018-05-04T13:43:13.666Z,8.60
2018-05-04T13:45:41.257Z,8.73
2018-05-04T13:48:08.875Z,9.43
2018-05-04T13:50:36.907Z,8.37
2018-05-04T13:53:04.563Z,8.50
2018-05-04T13:55:32.995Z,7.73
2018-05-04T13:58:00.545Z,8.73
2018-05-04T14:00:29.692Z,7.53
2018-05-04T14:02:57.988Z,9.30
2018-05-04T14:05:25.499Z,10.27
2018-05-04T14:07:53.024Z,9.33
2018-05-04T14:10:21.447Z,10.20
2018-05-04T14:12:49.171Z,8.50
2018-05-04T14:15:17.545Z,8.23
2018-05-04T14:17:45.068Z,9.33
2018-05-04T14:20:14.055Z,8.97
2018-05-04T14:22:41.694Z,8.30
2018-05-04T14:25:09.346Z,8.83
2018-05-04T14:27:37.042Z,9.37
2018-05-04T14:30:05.140Z,7.30
2018-05-04T14:32:33.545Z,7.70
2018-05-04T14:35:01.596Z,8.97
2018-05-04T14:37:30.150Z,7.97
2018-05-04T14:39:58.477Z,8.53
2018-05-04T14:42:26.883Z,8.40
2018-05-04T14:44:54.444Z,8.40
2018-05-04T14:47:22.277Z,8.13
2018-05-04T14:49:50.153Z,8.17
2018-05-04T14:52:17.673Z,8.53
2018-05-04T14:54:45.951Z,8.97
2018-05-04T14:57:15.716Z,8.17
2018-05-04T14:59:43.403Z,9.90
2018-05-04T15:02:11.368Z,8.63
2018-05-04T15:04:39.573Z,9.20
2018-05-04T15:07:07.619Z,9.23
2018-05-04T15:09:35.890Z,9.97
2018-05-04T15:12:03.685Z,8.67
2018-05-04T15:14:31.386Z,9.53
2018-05-04T15:16:59.165Z,7.80
2018-05-04T15:19:28.385Z,9.20
2018-05-04T15:21:56.342Z,9.93
2018-05-04T15:24:23.958Z,17.30
2018-05-04T15:26:52.487Z,8.60
2018-05-04T15:29:21.697Z,11.00
2018-05-04T15:31:50.176Z,9.33
2018-05-04T15:34:19.172Z,9.30
2018-05-04T15:36:47.187Z,9.87
2018-05-04T15:39:14.987Z,9.77
2018-05-04T15:41:42.767Z,9.50
2018-05-04T15:44:11.240Z,10.80
2018-05-04T15:46:39.806Z,10.73
2018-05-04T15:49:16.246Z,10.50
2018-05-04T15:51:50.767Z,11.13
2018-05-04T15:54:19.687Z,10.13
2018-05-04T15:56:48.520Z,11.30
2018-05-04T15:59:16.394Z,10.77
2018-05-04T16:01:44.440Z,10.53
2018-05-04T16:04:12.301Z,11.40
2018-05-04T16:06:40.463Z,11.30
2018-05-04T16:11:44.372Z,10.10
2018-05-04T16:14:16.236Z,10.50
2018-05-04T16:16:44.156Z,10.93
2018-05-04T16:19:12.431Z,11.03
2018-05-04T16:21:40.373Z,10.47
2018-05-04T16:24:09.996Z,9.50
2018-05-04T16:26:38.216Z,10.10
2018-05-04T16:29:07.009Z,11.90
2018-05-04T16:31:34.901Z,9.90
2018-05-04T16:34:02.760Z,12.60
2018-05-04T16:36:30.803Z,10.53
2018-05-04T16:39:00.261Z,10.33
2018-05-04T16:41:28.303Z,9.93
2018-05-04T16:43:59.108Z,10.63
2018-05-04T16:46:33.081Z,10.37
2018-05-04T16:49:07.469Z,10.97
2018-05-04T16:51:37.064Z,11.73
2018-05-04T16:54:05.911Z,11.00
2018-05-04T16:56:34.668Z,11.30
2018-05-04T16:59:04.408Z,11.60
2018-05-04T17:01:33.049Z,9.97
2018-05-04T17:04:00.955Z,9.60
2018-05-04T17:06:29.569Z,10.10
2018-05-04T17:08:57.422Z,10.00
2018-05-04T17:11:25.333Z,10.67
2018-05-04T17:13:53.112Z,10.23
2018-05-04T17:16:20.774Z,10.53
2018-05-04T17:18:48.407Z,10.80
2018-05-04T17:21:20.383Z,10.93
2018-05-04T17:23:50.318Z,11.13
2018-05-04T17:26:18.191Z,13.20
2018-05-04T17:28:45.795Z,17.53
2018-05-04T17:31:17.393Z,11.13
2018-05-04T17:33:46.274Z,11.07
2018-05-04T17:36:14.248Z,10.57
2018-05-04T17:38:41.916Z,11.00
2018-05-04T17:41:09.688Z,9.37
2018-05-04T17:43:38.156Z,9.87
2018-05-04T17:46:06.763Z,10.10
2018-05-04T17:48:34.718Z,10.87
2018-05-04T17:51:03.000Z,10.33
2018-05-04T17:53:32.689Z,10.30
2018-05-04T17:56:00.348Z,10.10
2018-05-04T17:58:27.968Z,10.67
2018-05-04T18:00:56.310Z,10.70
2018-05-04T18:03:23.977Z,10.70
2018-05-04T18:05:52.324Z,9.80
2018-05-04T18:08:19.924Z,10.97
2018-05-04T18:10:47.549Z,9.80
2018-05-04T18:13:15.163Z,10.50
2018-05-04T18:15:42.758Z,10.47
2018-05-04T18:18:10.456Z,9.53
2018-05-04T18:20:38.071Z,11.07
2018-05-04T18:23:05.674Z,10.20
2018-05-04T18:25:33.315Z,10.30
2018-05-04T18:28:01.677Z,10.03
2018-05-04T18:30:30.491Z,10.20
2018-05-04T18:32:58.157Z,10.13
2018-05-04T18:35:25.869Z,10.80
2018-05-04T18:37:54.321Z,10.40
2018-05-04T18:40:22.830Z,9.97
2018-05-04T18:42:50.436Z,11.43
2018-05-04T18:45:18.016Z,10.10
2018-05-04T18:47:45.581Z,9.77
2018-05-04T18:50:13.264Z,10.73
2018-05-04T18:52:42.971Z,11.63
2018-05-04T18:55:11.367Z,11.30
2018-05-04T18:57:39.043Z,10.30
2018-05-04T19:00:06.677Z,11.10
2018-05-04T19:02:39.862Z,10.30
2018-05-04T19:05:08.273Z,10.07
2018-05-04T19:07:36.366Z,9.07
2018-05-04T19:10:03.941Z,8.83
2018-05-04T19:12:31.495Z,10.10
2018-05-04T19:15:05.535Z,8.67
2018-05-04T19:17:33.814Z,10.00
2018-05-04T19:20:02.301Z,8.80
2018-05-04T19:22:30.736Z,9.70
2018-05-04T19:24:58.424Z,9.47
2018-05-04T19:27:26.032Z,9.73
2018-05-04T19:29:53.683Z,9.50
2018-05-04T19:32:22.051Z,9.20
2018-05-04T19:34:50.705Z,9.53
2018-05-04T19:37:18.267Z,10.23
2018-05-04T19:39:46.003Z,9.17
2018-05-04T19:42:13.508Z,9.17
2018-05-04T19:44:41.025Z,9.43
2018-05-04T19:47:09.211Z,9.67
2018-05-04T19:49:36.811Z,9.53
2018-05-04T19:52:04.363Z,9.70
2018-05-04T19:54:31.996Z,9.80
2018-05-04T19:56:59.504Z,8.63
2018-05-04T19:59:27.782Z,9.13
2018-05-04T20:01:56.511Z,9.60
2018-05-04T20:04:24.376Z,9.47
2018-05-04T20:06:52.008Z,9.50
2018-05-04T20:09:19.631Z,8.80
2018-05-04T20:11:47.201Z,8.73
2018-05-04T20:14:15.233Z,8.60
2018-05-04T20:16:42.916Z,8.83
2018-05-04T20:19:10.716Z,8.83
2018-05-04T20:21:45.963Z,8.03
2018-05-04T20:24:14.072Z,8.33
2018-05-04T20:26:41.682Z,8.70
2018-05-04T20:29:10.214Z,8.30
2018-05-04T20:31:38.596Z,8.77
2018-05-04T20:34:06.410Z,8.97
2018-05-04T20:36:34.153Z,9.00
2018-05-04T20:39:01.787Z,7.53
2018-05-04T20:41:30.362Z,8.80
2018-05-04T20:43:58.064Z,8.30
2018-05-04T20:46:25.689Z,8.00
2018-05-04T20:48:54.207Z,8.73
2018-05-04T20:51:21.848Z,7.83
2018-05-04T20:53:49.485Z,8.67
2018-05-04T20:56:17.017Z,8.20
2018-05-04T20:58:45.421Z,8.60
2018-05-04T21:01:13.831Z,7.87
2018-05-04T21:03:41.430Z,8.47
2018-05-04T21:06:09.033Z,7.80
2018-05-04T21:08:36.655Z,9.65
2018-05-04T21:11:04.259Z,7.47
2018-05-04T21:13:31.986Z,8.40
2018-05-04T21:16:00.291Z,9.10
2018-05-04T21:18:27.959Z,7.30
2018-05-04T21:20:56.335Z,7.70
2018-05-04T21:23:24.738Z,7.53
2018-05-04T21:25:52.336Z,7.60
2018-05-04T21:28:22.086Z,9.70
2018-05-04T21:31:00.115Z,8.90
2018-05-04T21:33:28.307Z,9.70
2018-05-04T21:35:56.978Z,8.75
2018-05-04T21:38:24.585Z,10.77
2018-05-04T21:40:52.177Z,14.07
2018-05-04T21:43:19.838Z,23.02
2018-05-04T21:45:47.413Z,10.15
2018-05-04T21:48:14.994Z,9.27
2018-05-04T21:50:45.488Z,18.90
2018-05-04T21:53:13.078Z,8.40
2018-05-04T21:55:40.788Z,12.93
2018-05-04T21:58:11.564Z,15.20
2018-05-04T22:00:49.930Z,9.93
2018-05-04T22:03:19.719Z,9.63
2018-05-04T22:05:47.364Z,17.60
2018-05-04T22:08:15.480Z,8.45
2018-05-04T22:10:43.173Z,10.73
2018-05-04T22:13:11.492Z,7.80
2018-05-04T22:15:41.158Z,8.25
2018-05-04T22:18:10.049Z,8.20
2018-05-04T22:20:38.738Z,8.52
2018-05-04T22:23:08.756Z,8.18
2018-05-04T22:25:36.839Z,8.23
2018-05-04T22:28:05.929Z,7.72
2018-05-04T22:30:35.364Z,9.13
2018-05-04T22:33:05.644Z,8.45
2018-05-04T22:35:35.129Z,8.70
2018-05-04T22:38:08.918Z,9.43
2018-05-04T22:40:37.465Z,8.43
2018-05-04T22:43:07.386Z,8.70
2018-05-04T22:45:38.424Z,7.78
2018-05-04T22:48:10.991Z,8.98
2018-05-04T22:50:38.670Z,8.60
2018-05-04T22:53:06.309Z,10.10
2018-05-04T22:55:35.872Z,9.55
2018-05-04T22:58:08.093Z,8.57
2018-05-04T23:00:35.647Z,9.23
2018-05-04T23:03:09.755Z,8.32
2018-05-04T23:05:37.930Z,8.75
2018-05-04T23:08:08.054Z,8.23
2018-05-04T23:10:36.736Z,8.00
2018-05-04T23:13:05.729Z,8.15
2018-05-04T23:15:36.263Z,8.82
2018-05-04T23:18:05.099Z,8.93
2018-05-04T23:20:34.459Z,9.38
2018-05-04T23:23:02.749Z,8.45
2018-05-04T23:25:30.314Z,8.93
2018-05-04T23:28:00.000Z,8.32
2018-05-04T23:30:32.833Z,8.43
2018-05-04T23:33:01.083Z,9.20
2018-05-04T23:35:30.738Z,9.05
2018-05-04T23:37:59.247Z,8.30
2018-05-04T23:40:28.632Z,8.90
2018-05-04T23:42:56.735Z,9.63
2018-05-04T23:45:25.732Z,7.97
2018-05-04T23:47:53.578Z,9.60
2018-05-04T23:50:21.083Z,8.05
2018-05-04T23:52:48.990Z,9.60
2018-05-04T23:55:18.866Z,8.93
2018-05-04T23:57:50.573Z,8.85
